sensor_id;sensor_type;location;lat;lon;timestamp;temperature;humidity
22069;DHT22;13887;57.196;-2.100;2023-12-07T00:00:11;4.00;85.74
22069;DHT22;13887;57.196;-2.100;2023-12-07T00:02:38;4.07;85.48
22069;DHT22;13887;57.196;-2.100;2023-12-07T00:05:06;4.05;85.64
22069;DHT22;13887;57.196;-2.100;2023-12-07T00:07:33;4.10;85.61
22069;DHT22;13887;57.196;-2.100;2023-12-07T00:10:00;4.07;85.74
22069;DHT22;13887;57.196;-2.100;2023-12-07T00:12:28;4.08;85.90
22069;DHT22;13887;57.196;-2.100;2023-12-07T00:14:55;4.12;85.86
22069;DHT22;13887;57.196;-2.100;2023-12-07T00:17:22;4.08;85.80
22069;DHT22;13887;57.196;-2.100;2023-12-07T00:19:50;4.05;86.03
22069;DHT22;13887;57.196;-2.100;2023-12-07T00:22:17;4.04;86.22
22069;DHT22;13887;57.196;-2.100;2023-12-07T00:24:45;4.10;86.11
22069;DHT22;13887;57.196;-2.100;2023-12-07T00:27:12;4.10;86.17
22069;DHT22;13887;57.196;-2.100;2023-12-07T00:29:39;4.09;86.19
22069;DHT22;13887;57.196;-2.100;2023-12-07T00:32:07;4.09;86.16
22069;DHT22;13887;57.196;-2.100;2023-12-07T00:34:35;4.10;86.26
22069;DHT22;13887;57.196;-2.100;2023-12-07T00:37:02;4.14;85.78
22069;DHT22;13887;57.196;-2.100;2023-12-07T00:39:30;4.16;85.88
22069;DHT22;13887;57.196;-2.100;2023-12-07T00:41:57;4.16;86.06
22069;DHT22;13887;57.196;-2.100;2023-12-07T00:44:25;4.17;85.90
22069;DHT22;13887;57.196;-2.100;2023-12-07T00:46:52;4.20;86.04
22069;DHT22;13887;57.196;-2.100;2023-12-07T00:49:19;4.21;86.00
22069;DHT22;13887;57.196;-2.100;2023-12-07T00:51:46;4.20;86.17
22069;DHT22;13887;57.196;-2.100;2023-12-07T00:54:15;4.21;86.15
22069;DHT22;13887;57.196;-2.100;2023-12-07T00:56:42;4.22;86.17
22069;DHT22;13887;57.196;-2.100;2023-12-07T00:59:12;4.26;85.96
22069;DHT22;13887;57.196;-2.100;2023-12-07T01:01:39;4.29;86.06
22069;DHT22;13887;57.196;-2.100;2023-12-07T01:04:07;4.29;85.85
22069;DHT22;13887;57.196;-2.100;2023-12-07T01:06:34;4.28;86.22
22069;DHT22;13887;57.196;-2.100;2023-12-07T01:09:02;4.30;86.35
22069;DHT22;13887;57.196;-2.100;2023-12-07T01:11:30;4.30;86.74
22069;DHT22;13887;57.196;-2.100;2023-12-07T01:13:58;4.27;86.77
22069;DHT22;13887;57.196;-2.100;2023-12-07T01:16:25;4.31;86.78
22069;DHT22;13887;57.196;-2.100;2023-12-07T01:18:52;4.36;86.31
22069;DHT22;13887;57.196;-2.100;2023-12-07T01:21:19;4.34;86.44
22069;DHT22;13887;57.196;-2.100;2023-12-07T01:23:47;4.36;86.29
22069;DHT22;13887;57.196;-2.100;2023-12-07T01:26:22;4.34;86.45
22069;DHT22;13887;57.196;-2.100;2023-12-07T01:28:49;4.37;86.30
22069;DHT22;13887;57.196;-2.100;2023-12-07T01:31:17;4.37;86.32
22069;DHT22;13887;57.196;-2.100;2023-12-07T01:33:44;4.38;86.27
22069;DHT22;13887;57.196;-2.100;2023-12-07T01:36:12;4.38;86.22
22069;DHT22;13887;57.196;-2.100;2023-12-07T01:38:39;4.37;86.29
22069;DHT22;13887;57.196;-2.100;2023-12-07T01:41:10;4.37;86.29
22069;DHT22;13887;57.196;-2.100;2023-12-07T01:43:37;4.46;86.00
22069;DHT22;13887;57.196;-2.100;2023-12-07T01:46:04;4.45;85.82
22069;DHT22;13887;57.196;-2.100;2023-12-07T01:48:32;4.49;85.70
22069;DHT22;13887;57.196;-2.100;2023-12-07T01:51:00;4.49;85.87
22069;DHT22;13887;57.196;-2.100;2023-12-07T01:53:28;4.47;86.09
22069;DHT22;13887;57.196;-2.100;2023-12-07T01:55:56;4.53;85.65
22069;DHT22;13887;57.196;-2.100;2023-12-07T01:58:24;4.50;85.74
22069;DHT22;13887;57.196;-2.100;2023-12-07T02:00:52;4.48;85.80
22069;DHT22;13887;57.196;-2.100;2023-12-07T02:03:20;4.51;85.67
22069;DHT22;13887;57.196;-2.100;2023-12-07T02:05:48;4.52;85.63
22069;DHT22;13887;57.196;-2.100;2023-12-07T02:08:16;4.52;85.61
22069;DHT22;13887;57.196;-2.100;2023-12-07T02:10:43;4.53;85.64
22069;DHT22;13887;57.196;-2.100;2023-12-07T02:13:11;4.58;85.54
22069;DHT22;13887;57.196;-2.100;2023-12-07T02:15:38;4.58;85.63
22069;DHT22;13887;57.196;-2.100;2023-12-07T02:21:15;4.64;85.38
22069;DHT22;13887;57.196;-2.100;2023-12-07T02:23:46;4.59;85.62
22069;DHT22;13887;57.196;-2.100;2023-12-07T02:26:20;4.62;85.61
22069;DHT22;13887;57.196;-2.100;2023-12-07T02:28:48;4.65;85.45
22069;DHT22;13887;57.196;-2.100;2023-12-07T02:31:16;4.67;85.61
22069;DHT22;13887;57.196;-2.100;2023-12-07T02:33:43;4.67;85.73
22069;DHT22;13887;57.196;-2.100;2023-12-07T02:36:13;4.67;85.81
22069;DHT22;13887;57.196;-2.100;2023-12-07T02:38:42;4.63;86.06
22069;DHT22;13887;57.196;-2.100;2023-12-07T02:41:11;4.64;86.29
22069;DHT22;13887;57.196;-2.100;2023-12-07T02:43:39;4.64;86.42
22069;DHT22;13887;57.196;-2.100;2023-12-07T02:46:06;4.66;86.06
22069;DHT22;13887;57.196;-2.100;2023-12-07T02:48:34;4.64;86.43
22069;DHT22;13887;57.196;-2.100;2023-12-07T02:51:01;4.66;86.35
22069;DHT22;13887;57.196;-2.100;2023-12-07T02:53:28;4.66;86.36
22069;DHT22;13887;57.196;-2.100;2023-12-07T02:55:56;4.68;86.29
22069;DHT22;13887;57.196;-2.100;2023-12-07T02:58:23;4.67;86.45
22069;DHT22;13887;57.196;-2.100;2023-12-07T03:00:50;4.72;86.21
22069;DHT22;13887;57.196;-2.100;2023-12-07T03:03:18;4.71;86.27
22069;DHT22;13887;57.196;-2.100;2023-12-07T03:05:45;4.73;86.19
22069;DHT22;13887;57.196;-2.100;2023-12-07T03:08:12;4.68;86.43
22069;DHT22;13887;57.196;-2.100;2023-12-07T03:10:40;4.72;86.21
22069;DHT22;13887;57.196;-2.100;2023-12-07T03:13:07;4.76;86.54
22069;DHT22;13887;57.196;-2.100;2023-12-07T03:15:34;4.76;86.48
22069;DHT22;13887;57.196;-2.100;2023-12-07T03:18:02;4.76;86.86
22069;DHT22;13887;57.196;-2.100;2023-12-07T03:20:29;4.76;86.86
22069;DHT22;13887;57.196;-2.100;2023-12-07T03:22:57;4.77;87.20
22069;DHT22;13887;57.196;-2.100;2023-12-07T03:25:25;4.80;86.90
22069;DHT22;13887;57.196;-2.100;2023-12-07T03:27:52;4.80;86.98
22069;DHT22;13887;57.196;-2.100;2023-12-07T03:30:19;4.78;87.47
22069;DHT22;13887;57.196;-2.100;2023-12-07T03:32:47;4.77;87.38
22069;DHT22;13887;57.196;-2.100;2023-12-07T03:35:14;4.77;87.97
22069;DHT22;13887;57.196;-2.100;2023-12-07T03:37:42;4.79;88.15
22069;DHT22;13887;57.196;-2.100;2023-12-07T03:40:09;4.81;88.03
22069;DHT22;13887;57.196;-2.100;2023-12-07T03:42:36;4.79;88.36
22069;DHT22;13887;57.196;-2.100;2023-12-07T03:45:22;4.78;88.43
22069;DHT22;13887;57.196;-2.100;2023-12-07T03:47:49;4.80;87.94
22069;DHT22;13887;57.196;-2.100;2023-12-07T03:50:17;4.82;88.56
22069;DHT22;13887;57.196;-2.100;2023-12-07T03:52:44;4.81;88.22
22069;DHT22;13887;57.196;-2.100;2023-12-07T03:55:12;4.80;89.18
22069;DHT22;13887;57.196;-2.100;2023-12-07T03:57:39;4.80;88.47
22069;DHT22;13887;57.196;-2.100;2023-12-07T04:00:07;4.81;88.71
22069;DHT22;13887;57.196;-2.100;2023-12-07T04:02:35;4.83;88.87
22069;DHT22;13887;57.196;-2.100;2023-12-07T04:05:02;4.83;88.93
22069;DHT22;13887;57.196;-2.100;2023-12-07T04:07:30;4.83;88.83
22069;DHT22;13887;57.196;-2.100;2023-12-07T04:09:57;4.83;89.58
22069;DHT22;13887;57.196;-2.100;2023-12-07T04:12:25;4.83;89.37
22069;DHT22;13887;57.196;-2.100;2023-12-07T04:14:52;4.81;89.48
22069;DHT22;13887;57.196;-2.100;2023-12-07T04:17:20;4.84;89.59
22069;DHT22;13887;57.196;-2.100;2023-12-07T04:19:48;4.87;89.03
22069;DHT22;13887;57.196;-2.100;2023-12-07T04:22:15;4.87;88.21
22069;DHT22;13887;57.196;-2.100;2023-12-07T04:24:43;4.87;88.97
22069;DHT22;13887;57.196;-2.100;2023-12-07T04:27:10;4.88;89.37
22069;DHT22;13887;57.196;-2.100;2023-12-07T04:29:37;4.89;89.01
22069;DHT22;13887;57.196;-2.100;2023-12-07T04:32:06;4.87;89.13
22069;DHT22;13887;57.196;-2.100;2023-12-07T04:34:34;4.88;89.14
22069;DHT22;13887;57.196;-2.100;2023-12-07T04:37:01;4.92;89.24
22069;DHT22;13887;57.196;-2.100;2023-12-07T04:39:29;4.92;89.26
22069;DHT22;13887;57.196;-2.100;2023-12-07T04:41:56;4.94;89.06
22069;DHT22;13887;57.196;-2.100;2023-12-07T04:44:24;4.92;89.70
22069;DHT22;13887;57.196;-2.100;2023-12-07T04:46:55;4.91;89.48
22069;DHT22;13887;57.196;-2.100;2023-12-07T04:49:22;4.92;89.80
22069;DHT22;13887;57.196;-2.100;2023-12-07T04:51:50;4.91;89.77
22069;DHT22;13887;57.196;-2.100;2023-12-07T04:54:17;4.94;89.41
22069;DHT22;13887;57.196;-2.100;2023-12-07T04:56:46;4.93;89.57
22069;DHT22;13887;57.196;-2.100;2023-12-07T04:59:13;4.95;89.76
22069;DHT22;13887;57.196;-2.100;2023-12-07T05:01:41;4.96;89.79
22069;DHT22;13887;57.196;-2.100;2023-12-07T05:04:08;4.97;89.66
22069;DHT22;13887;57.196;-2.100;2023-12-07T05:06:35;4.96;89.84
22069;DHT22;13887;57.196;-2.100;2023-12-07T05:09:03;4.98;89.73
22069;DHT22;13887;57.196;-2.100;2023-12-07T05:11:30;5.00;89.57
22069;DHT22;13887;57.196;-2.100;2023-12-07T05:13:58;5.03;89.28
22069;DHT22;13887;57.196;-2.100;2023-12-07T05:16:25;5.03;89.63
22069;DHT22;13887;57.196;-2.100;2023-12-07T05:18:52;5.06;89.34
22069;DHT22;13887;57.196;-2.100;2023-12-07T05:21:20;5.03;89.39
22069;DHT22;13887;57.196;-2.100;2023-12-07T05:23:47;5.03;89.65
22069;DHT22;13887;57.196;-2.100;2023-12-07T05:26:15;5.02;89.59
22069;DHT22;13887;57.196;-2.100;2023-12-07T05:28:42;5.03;89.40
22069;DHT22;13887;57.196;-2.100;2023-12-07T05:31:19;5.02;89.98
22069;DHT22;13887;57.196;-2.100;2023-12-07T05:33:47;5.05;89.94
22069;DHT22;13887;57.196;-2.100;2023-12-07T05:36:15;5.04;90.12
22069;DHT22;13887;57.196;-2.100;2023-12-07T05:38:42;5.08;89.76
22069;DHT22;13887;57.196;-2.100;2023-12-07T05:41:10;5.06;89.73
22069;DHT22;13887;57.196;-2.100;2023-12-07T05:43:43;5.07;89.37
22069;DHT22;13887;57.196;-2.100;2023-12-07T05:46:10;5.07;89.92
22069;DHT22;13887;57.196;-2.100;2023-12-07T05:48:38;5.06;90.12
22069;DHT22;13887;57.196;-2.100;2023-12-07T05:51:05;5.09;90.04
22069;DHT22;13887;57.196;-2.100;2023-12-07T05:53:33;5.09;89.99
22069;DHT22;13887;57.196;-2.100;2023-12-07T05:56:01;5.11;89.98
22069;DHT22;13887;57.196;-2.100;2023-12-07T05:58:30;5.15;89.36
22069;DHT22;13887;57.196;-2.100;2023-12-07T06:01:00;5.15;89.69
22069;DHT22;13887;57.196;-2.100;2023-12-07T06:03:29;5.17;89.28
22069;DHT22;13887;57.196;-2.100;2023-12-07T06:05:57;5.16;89.89
22069;DHT22;13887;57.196;-2.100;2023-12-07T06:08:24;5.11;90.10
22069;DHT22;13887;57.196;-2.100;2023-12-07T06:10:51;5.18;90.08
22069;DHT22;13887;57.196;-2.100;2023-12-07T06:13:18;5.20;89.97
22069;DHT22;13887;57.196;-2.100;2023-12-07T06:15:46;5.18;89.57
22069;DHT22;13887;57.196;-2.100;2023-12-07T06:18:13;5.18;90.04
22069;DHT22;13887;57.196;-2.100;2023-12-07T06:20:40;5.22;89.87
22069;DHT22;13887;57.196;-2.100;2023-12-07T06:23:09;5.21;89.70
22069;DHT22;13887;57.196;-2.100;2023-12-07T06:25:39;5.24;89.66
22069;DHT22;13887;57.196;-2.100;2023-12-07T06:28:07;5.26;89.48
22069;DHT22;13887;57.196;-2.100;2023-12-07T06:30:35;5.26;89.50
22069;DHT22;13887;57.196;-2.100;2023-12-07T06:33:02;5.27;89.92
22069;DHT22;13887;57.196;-2.100;2023-12-07T06:35:29;5.26;89.72
22069;DHT22;13887;57.196;-2.100;2023-12-07T06:37:57;5.26;89.40
22069;DHT22;13887;57.196;-2.100;2023-12-07T06:40:25;5.25;88.94
22069;DHT22;13887;57.196;-2.100;2023-12-07T06:42:52;5.27;88.57
22069;DHT22;13887;57.196;-2.100;2023-12-07T06:45:19;5.27;88.60
22069;DHT22;13887;57.196;-2.100;2023-12-07T06:47:46;5.31;88.21
22069;DHT22;13887;57.196;-2.100;2023-12-07T06:50:14;5.33;88.11
22069;DHT22;13887;57.196;-2.100;2023-12-07T06:52:41;5.34;87.95
22069;DHT22;13887;57.196;-2.100;2023-12-07T06:55:09;5.35;88.14
22069;DHT22;13887;57.196;-2.100;2023-12-07T06:57:38;5.34;88.09
22069;DHT22;13887;57.196;-2.100;2023-12-07T07:00:05;5.34;88.22
22069;DHT22;13887;57.196;-2.100;2023-12-07T07:02:41;5.34;88.06
22069;DHT22;13887;57.196;-2.100;2023-12-07T07:05:08;5.37;87.98
22069;DHT22;13887;57.196;-2.100;2023-12-07T07:07:38;5.39;87.93
22069;DHT22;13887;57.196;-2.100;2023-12-07T07:10:06;5.40;87.96
22069;DHT22;13887;57.196;-2.100;2023-12-07T07:12:33;5.39;87.92
22069;DHT22;13887;57.196;-2.100;2023-12-07T07:15:01;5.39;87.66
22069;DHT22;13887;57.196;-2.100;2023-12-07T07:17:29;5.40;87.77
22069;DHT22;13887;57.196;-2.100;2023-12-07T07:19:56;5.42;88.00
22069;DHT22;13887;57.196;-2.100;2023-12-07T07:22:24;5.42;87.84
22069;DHT22;13887;57.196;-2.100;2023-12-07T07:24:51;5.45;88.01
22069;DHT22;13887;57.196;-2.100;2023-12-07T07:27:19;5.43;87.93
22069;DHT22;13887;57.196;-2.100;2023-12-07T07:29:46;5.43;87.99
22069;DHT22;13887;57.196;-2.100;2023-12-07T07:32:14;5.43;87.86
22069;DHT22;13887;57.196;-2.100;2023-12-07T07:34:42;5.45;87.87
22069;DHT22;13887;57.196;-2.100;2023-12-07T07:37:09;5.50;87.61
22069;DHT22;13887;57.196;-2.100;2023-12-07T07:39:37;5.51;87.52
22069;DHT22;13887;57.196;-2.100;2023-12-07T07:42:04;5.49;87.70
22069;DHT22;13887;57.196;-2.100;2023-12-07T07:44:32;5.49;87.80
22069;DHT22;13887;57.196;-2.100;2023-12-07T07:47:00;5.49;87.25
22069;DHT22;13887;57.196;-2.100;2023-12-07T07:49:27;5.48;87.56
22069;DHT22;13887;57.196;-2.100;2023-12-07T07:51:54;5.51;87.73
22069;DHT22;13887;57.196;-2.100;2023-12-07T07:54:22;5.49;87.91
22069;DHT22;13887;57.196;-2.100;2023-12-07T07:56:49;5.50;87.90
22069;DHT22;13887;57.196;-2.100;2023-12-07T07:59:16;5.52;88.06
22069;DHT22;13887;57.196;-2.100;2023-12-07T08:01:46;5.52;88.18
22069;DHT22;13887;57.196;-2.100;2023-12-07T08:04:17;5.56;87.89
22069;DHT22;13887;57.196;-2.100;2023-12-07T08:06:44;5.56;87.88
22069;DHT22;13887;57.196;-2.100;2023-12-07T08:09:11;5.57;88.02
22069;DHT22;13887;57.196;-2.100;2023-12-07T08:11:39;5.54;88.28
22069;DHT22;13887;57.196;-2.100;2023-12-07T08:14:06;5.54;88.44
22069;DHT22;13887;57.196;-2.100;2023-12-07T08:16:33;5.52;88.43
22069;DHT22;13887;57.196;-2.100;2023-12-07T08:19:01;5.57;88.40
22069;DHT22;13887;57.196;-2.100;2023-12-07T08:21:28;5.63;88.15
22069;DHT22;13887;57.196;-2.100;2023-12-07T08:23:57;5.61;88.22
22069;DHT22;13887;57.196;-2.100;2023-12-07T08:26:24;5.61;88.54
22069;DHT22;13887;57.196;-2.100;2023-12-07T08:28:55;5.62;87.97
22069;DHT22;13887;57.196;-2.100;2023-12-07T08:31:22;5.61;88.25
22069;DHT22;13887;57.196;-2.100;2023-12-07T08:33:51;5.63;88.33
22069;DHT22;13887;57.196;-2.100;2023-12-07T08:36:19;5.60;88.55
22069;DHT22;13887;57.196;-2.100;2023-12-07T08:38:46;5.62;88.60
22069;DHT22;13887;57.196;-2.100;2023-12-07T08:41:14;5.64;88.24
22069;DHT22;13887;57.196;-2.100;2023-12-07T08:43:41;5.63;88.70
22069;DHT22;13887;57.196;-2.100;2023-12-07T08:46:09;5.64;88.53
22069;DHT22;13887;57.196;-2.100;2023-12-07T08:48:37;5.63;88.90
22069;DHT22;13887;57.196;-2.100;2023-12-07T08:51:09;5.65;88.47
22069;DHT22;13887;57.196;-2.100;2023-12-07T08:53:38;5.66;88.86
22069;DHT22;13887;57.196;-2.100;2023-12-07T08:56:05;5.66;88.86
22069;DHT22;13887;57.196;-2.100;2023-12-07T08:58:33;5.67;88.38
22069;DHT22;13887;57.196;-2.100;2023-12-07T09:01:00;5.70;88.63
22069;DHT22;13887;57.196;-2.100;2023-12-07T09:03:28;5.70;88.57
22069;DHT22;13887;57.196;-2.100;2023-12-07T09:06:00;5.69;88.75
22069;DHT22;13887;57.196;-2.100;2023-12-07T09:08:28;5.77;88.59
22069;DHT22;13887;57.196;-2.100;2023-12-07T09:10:55;5.76;88.94
22069;DHT22;13887;57.196;-2.100;2023-12-07T09:13:22;5.74;89.01
22069;DHT22;13887;57.196;-2.100;2023-12-07T09:15:50;5.68;88.93
22069;DHT22;13887;57.196;-2.100;2023-12-07T09:18:17;5.66;89.72
22069;DHT22;13887;57.196;-2.100;2023-12-07T09:20:45;5.77;89.35
22069;DHT22;13887;57.196;-2.100;2023-12-07T09:23:16;5.75;89.54
22069;DHT22;13887;57.196;-2.100;2023-12-07T09:25:44;5.77;88.80
22069;DHT22;13887;57.196;-2.100;2023-12-07T09:28:11;5.76;89.03
22069;DHT22;13887;57.196;-2.100;2023-12-07T09:30:38;5.75;89.44
22069;DHT22;13887;57.196;-2.100;2023-12-07T09:33:06;5.84;88.89
22069;DHT22;13887;57.196;-2.100;2023-12-07T09:35:33;5.79;89.73
22069;DHT22;13887;57.196;-2.100;2023-12-07T09:38:02;5.79;89.39
22069;DHT22;13887;57.196;-2.100;2023-12-07T09:40:30;5.81;89.35
22069;DHT22;13887;57.196;-2.100;2023-12-07T09:42:57;5.79;89.28
22069;DHT22;13887;57.196;-2.100;2023-12-07T09:45:25;5.86;89.61
22069;DHT22;13887;57.196;-2.100;2023-12-07T09:47:55;5.84;89.46
22069;DHT22;13887;57.196;-2.100;2023-12-07T09:50:24;5.91;89.09
22069;DHT22;13887;57.196;-2.100;2023-12-07T09:52:54;5.82;89.15
22069;DHT22;13887;57.196;-2.100;2023-12-07T09:55:35;5.86;89.13
22069;DHT22;13887;57.196;-2.100;2023-12-07T09:58:05;5.83;89.35
22069;DHT22;13887;57.196;-2.100;2023-12-07T10:00:36;5.92;88.93
22069;DHT22;13887;57.196;-2.100;2023-12-07T10:03:04;5.87;89.31
22069;DHT22;13887;57.196;-2.100;2023-12-07T10:05:55;5.85;89.28
22069;DHT22;13887;57.196;-2.100;2023-12-07T10:08:32;5.84;89.70
22069;DHT22;13887;57.196;-2.100;2023-12-07T10:11:09;5.87;90.31
22069;DHT22;13887;57.196;-2.100;2023-12-07T10:13:37;5.89;90.05
22069;DHT22;13887;57.196;-2.100;2023-12-07T10:16:13;5.87;90.24
22069;DHT22;13887;57.196;-2.100;2023-12-07T10:18:42;5.86;89.81
22069;DHT22;13887;57.196;-2.100;2023-12-07T10:21:12;5.87;90.09
22069;DHT22;13887;57.196;-2.100;2023-12-07T10:23:42;5.89;89.42
22069;DHT22;13887;57.196;-2.100;2023-12-07T10:26:16;5.86;89.76
22069;DHT22;13887;57.196;-2.100;2023-12-07T10:28:49;5.94;90.23
22069;DHT22;13887;57.196;-2.100;2023-12-07T10:31:21;5.94;89.74
22069;DHT22;13887;57.196;-2.100;2023-12-07T10:33:49;5.96;89.33
22069;DHT22;13887;57.196;-2.100;2023-12-07T10:36:17;5.92;90.42
22069;DHT22;13887;57.196;-2.100;2023-12-07T10:38:44;5.93;90.99
22069;DHT22;13887;57.196;-2.100;2023-12-07T10:41:12;5.89;89.76
22069;DHT22;13887;57.196;-2.100;2023-12-07T10:43:48;5.94;90.65
22069;DHT22;13887;57.196;-2.100;2023-12-07T10:46:19;5.94;90.57
22069;DHT22;13887;57.196;-2.100;2023-12-07T10:48:48;5.95;90.36
22069;DHT22;13887;57.196;-2.100;2023-12-07T10:51:35;5.97;90.31
22069;DHT22;13887;57.196;-2.100;2023-12-07T10:54:05;5.95;90.98
22069;DHT22;13887;57.196;-2.100;2023-12-07T10:56:45;5.98;89.86
22069;DHT22;13887;57.196;-2.100;2023-12-07T10:59:13;5.97;90.01
22069;DHT22;13887;57.196;-2.100;2023-12-07T11:01:57;5.93;90.62
22069;DHT22;13887;57.196;-2.100;2023-12-07T11:04:25;5.96;90.34
22069;DHT22;13887;57.196;-2.100;2023-12-07T11:06:56;6.04;90.75
22069;DHT22;13887;57.196;-2.100;2023-12-07T11:09:31;6.02;90.26
22069;DHT22;13887;57.196;-2.100;2023-12-07T11:12:13;5.98;90.60
22069;DHT22;13887;57.196;-2.100;2023-12-07T11:14:44;5.99;90.60
22069;DHT22;13887;57.196;-2.100;2023-12-07T11:17:12;6.00;90.89
22069;DHT22;13887;57.196;-2.100;2023-12-07T11:19:43;6.00;90.21
22069;DHT22;13887;57.196;-2.100;2023-12-07T11:22:12;5.99;90.67
22069;DHT22;13887;57.196;-2.100;2023-12-07T11:24:57;6.01;91.32
22069;DHT22;13887;57.196;-2.100;2023-12-07T11:27:29;6.00;90.88
22069;DHT22;13887;57.196;-2.100;2023-12-07T11:29:59;6.01;90.54
22069;DHT22;13887;57.196;-2.100;2023-12-07T11:32:27;6.04;91.14
22069;DHT22;13887;57.196;-2.100;2023-12-07T11:35:01;6.00;90.26
22069;DHT22;13887;57.196;-2.100;2023-12-07T11:37:59;6.02;90.37
22069;DHT22;13887;57.196;-2.100;2023-12-07T11:40:27;6.04;90.31
22069;DHT22;13887;57.196;-2.100;2023-12-07T11:42:55;6.02;91.05
22069;DHT22;13887;57.196;-2.100;2023-12-07T11:45:47;6.02;90.74
22069;DHT22;13887;57.196;-2.100;2023-12-07T11:48:20;6.08;91.57
22069;DHT22;13887;57.196;-2.100;2023-12-07T11:51:00;6.04;91.27
22069;DHT22;13887;57.196;-2.100;2023-12-07T11:53:30;6.05;92.11
22069;DHT22;13887;57.196;-2.100;2023-12-07T11:55:59;6.04;91.54
22069;DHT22;13887;57.196;-2.100;2023-12-07T11:58:30;6.05;91.95
22069;DHT22;13887;57.196;-2.100;2023-12-07T12:01:02;6.06;92.08
22069;DHT22;13887;57.196;-2.100;2023-12-07T12:03:31;6.09;91.92
22069;DHT22;13887;57.196;-2.100;2023-12-07T12:06:07;6.06;92.55
22069;DHT22;13887;57.196;-2.100;2023-12-07T12:08:40;6.09;92.61
22069;DHT22;13887;57.196;-2.100;2023-12-07T12:11:07;6.06;93.00
22069;DHT22;13887;57.196;-2.100;2023-12-07T12:13:36;6.07;93.42
22069;DHT22;13887;57.196;-2.100;2023-12-07T12:16:04;6.10;92.38
22069;DHT22;13887;57.196;-2.100;2023-12-07T12:18:34;6.13;92.72
22069;DHT22;13887;57.196;-2.100;2023-12-07T12:21:02;6.09;92.75
22069;DHT22;13887;57.196;-2.100;2023-12-07T12:23:30;6.11;92.51
22069;DHT22;13887;57.196;-2.100;2023-12-07T12:25:57;6.12;92.29
22069;DHT22;13887;57.196;-2.100;2023-12-07T12:28:25;6.14;92.18
22069;DHT22;13887;57.196;-2.100;2023-12-07T12:30:54;6.24;91.26
22069;DHT22;13887;57.196;-2.100;2023-12-07T12:33:22;6.19;91.60
22069;DHT22;13887;57.196;-2.100;2023-12-07T12:36:04;6.22;92.63
22069;DHT22;13887;57.196;-2.100;2023-12-07T12:38:33;6.22;92.77
22069;DHT22;13887;57.196;-2.100;2023-12-07T12:41:09;6.20;92.67
22069;DHT22;13887;57.196;-2.100;2023-12-07T12:43:37;6.15;93.08
22069;DHT22;13887;57.196;-2.100;2023-12-07T12:46:04;6.19;92.53
22069;DHT22;13887;57.196;-2.100;2023-12-07T12:48:33;6.19;92.34
22069;DHT22;13887;57.196;-2.100;2023-12-07T12:51:13;6.21;92.05
22069;DHT22;13887;57.196;-2.100;2023-12-07T12:53:45;6.21;92.20
22069;DHT22;13887;57.196;-2.100;2023-12-07T12:56:19;6.21;92.37
22069;DHT22;13887;57.196;-2.100;2023-12-07T12:58:52;6.19;92.81
22069;DHT22;13887;57.196;-2.100;2023-12-07T13:01:23;6.20;92.95
22069;DHT22;13887;57.196;-2.100;2023-12-07T13:03:50;6.23;92.65
22069;DHT22;13887;57.196;-2.100;2023-12-07T13:06:18;6.23;92.18
22069;DHT22;13887;57.196;-2.100;2023-12-07T13:08:47;6.25;91.85
22069;DHT22;13887;57.196;-2.100;2023-12-07T13:11:18;6.24;91.50
22069;DHT22;13887;57.196;-2.100;2023-12-07T13:13:47;6.22;91.72
22069;DHT22;13887;57.196;-2.100;2023-12-07T13:16:18;6.19;92.04
22069;DHT22;13887;57.196;-2.100;2023-12-07T13:18:47;6.16;92.28
22069;DHT22;13887;57.196;-2.100;2023-12-07T13:21:14;6.15;92.09
22069;DHT22;13887;57.196;-2.100;2023-12-07T13:23:43;6.17;92.34
22069;DHT22;13887;57.196;-2.100;2023-12-07T13:26:14;6.16;92.48
22069;DHT22;13887;57.196;-2.100;2023-12-07T13:28:41;6.14;92.53
22069;DHT22;13887;57.196;-2.100;2023-12-07T13:31:08;6.17;92.56
22069;DHT22;13887;57.196;-2.100;2023-12-07T13:33:36;6.22;92.61
22069;DHT22;13887;57.196;-2.100;2023-12-07T13:36:18;6.16;92.91
22069;DHT22;13887;57.196;-2.100;2023-12-07T13:38:47;6.21;92.91
22069;DHT22;13887;57.196;-2.100;2023-12-07T13:41:14;6.20;93.58
22069;DHT22;13887;57.196;-2.100;2023-12-07T13:43:42;6.19;93.05
22069;DHT22;13887;57.196;-2.100;2023-12-07T13:46:09;6.20;93.10
22069;DHT22;13887;57.196;-2.100;2023-12-07T13:48:38;6.19;93.27
22069;DHT22;13887;57.196;-2.100;2023-12-07T13:51:05;6.21;93.41
22069;DHT22;13887;57.196;-2.100;2023-12-07T13:53:33;6.20;93.46
22069;DHT22;13887;57.196;-2.100;2023-12-07T13:56:01;6.20;93.75
22069;DHT22;13887;57.196;-2.100;2023-12-07T13:58:31;6.17;93.49
22069;DHT22;13887;57.196;-2.100;2023-12-07T14:00:58;6.21;93.60
22069;DHT22;13887;57.196;-2.100;2023-12-07T14:03:26;6.23;93.55
22069;DHT22;13887;57.196;-2.100;2023-12-07T14:05:53;6.27;93.62
22069;DHT22;13887;57.196;-2.100;2023-12-07T14:08:21;6.27;93.72
22069;DHT22;13887;57.196;-2.100;2023-12-07T14:10:48;6.27;93.64
22069;DHT22;13887;57.196;-2.100;2023-12-07T14:13:15;6.24;93.93
22069;DHT22;13887;57.196;-2.100;2023-12-07T14:15:45;6.24;93.78
22069;DHT22;13887;57.196;-2.100;2023-12-07T14:18:12;6.26;93.95
22069;DHT22;13887;57.196;-2.100;2023-12-07T14:20:42;6.25;94.33
22069;DHT22;13887;57.196;-2.100;2023-12-07T14:23:29;6.27;94.89
22069;DHT22;13887;57.196;-2.100;2023-12-07T14:25:58;6.30;93.95
22069;DHT22;13887;57.196;-2.100;2023-12-07T14:28:30;6.33;93.91
22069;DHT22;13887;57.196;-2.100;2023-12-07T14:30:58;6.31;93.93
22069;DHT22;13887;57.196;-2.100;2023-12-07T14:33:26;6.30;94.00
22069;DHT22;13887;57.196;-2.100;2023-12-07T14:35:54;6.30;93.96
22069;DHT22;13887;57.196;-2.100;2023-12-07T14:38:22;6.29;94.09
22069;DHT22;13887;57.196;-2.100;2023-12-07T14:40:50;6.28;94.47
22069;DHT22;13887;57.196;-2.100;2023-12-07T14:43:18;6.34;94.67
22069;DHT22;13887;57.196;-2.100;2023-12-07T14:45:48;6.31;94.33
22069;DHT22;13887;57.196;-2.100;2023-12-07T14:48:15;6.34;94.36
22069;DHT22;13887;57.196;-2.100;2023-12-07T14:50:44;6.31;94.66
22069;DHT22;13887;57.196;-2.100;2023-12-07T14:53:11;6.34;94.69
22069;DHT22;13887;57.196;-2.100;2023-12-07T14:55:39;6.33;94.81
22069;DHT22;13887;57.196;-2.100;2023-12-07T14:58:06;6.33;94.61
22069;DHT22;13887;57.196;-2.100;2023-12-07T15:00:34;6.35;95.21
22069;DHT22;13887;57.196;-2.100;2023-12-07T15:03:02;6.33;94.67
22069;DHT22;13887;57.196;-2.100;2023-12-07T15:05:29;6.31;94.52
22069;DHT22;13887;57.196;-2.100;2023-12-07T15:07:57;6.34;94.39
22069;DHT22;13887;57.196;-2.100;2023-12-07T15:10:24;6.34;94.74
22069;DHT22;13887;57.196;-2.100;2023-12-07T15:12:51;6.30;94.51
22069;DHT22;13887;57.196;-2.100;2023-12-07T15:15:18;6.30;94.97
22069;DHT22;13887;57.196;-2.100;2023-12-07T15:17:46;6.33;94.69
22069;DHT22;13887;57.196;-2.100;2023-12-07T15:20:14;6.36;94.52
22069;DHT22;13887;57.196;-2.100;2023-12-07T15:22:42;6.37;94.44
22069;DHT22;13887;57.196;-2.100;2023-12-07T15:25:12;6.36;94.74
22069;DHT22;13887;57.196;-2.100;2023-12-07T15:27:40;6.36;94.57
22069;DHT22;13887;57.196;-2.100;2023-12-07T15:30:09;6.37;95.04
22069;DHT22;13887;57.196;-2.100;2023-12-07T15:32:37;6.38;94.63
22069;DHT22;13887;57.196;-2.100;2023-12-07T15:35:05;6.40;95.03
22069;DHT22;13887;57.196;-2.100;2023-12-07T15:37:33;6.39;95.40
22069;DHT22;13887;57.196;-2.100;2023-12-07T15:40:00;6.38;95.36
22069;DHT22;13887;57.196;-2.100;2023-12-07T15:42:27;6.40;95.58